Time;durP1;ratioP1;P1;durP2;ratioP2;P2;SDS_P1;SDS_P2;PMS_P1;PMS_P2;Temp;Humidity;BMP_temperature;BMP_pressure;BME280_temperature;BME280_humidity;BME280_pressure;Samples;Min_cycle;Max_cycle;Signal;HPM_P1;HPM_P2
2023/09/08 00:01:17;;;;;;;9.93;5.03;;;;;;;15.87;74.10;96883.50;5117376;28;20126;-69
2023/09/08 00:03:44;;;;;;;5.80;4.28;;;;;;;15.83;74.32;96893.34;5117254;28;20573;-71
2023/09/08 00:06:12;;;;;;;8.15;4.55;;;;;;;15.77;74.30;96893.66;5117757;28;20120;-65
2023/09/08 00:08:39;;;;;;;5.72;4.22;;;;;;;15.73;74.71;96898.28;5117035;28;20044;-63
2023/09/08 00:11:07;;;;;;;6.97;4.72;;;;;;;15.79;74.66;96892.66;5117279;28;20133;-68
2023/09/08 00:13:34;;;;;;;6.68;4.55;;;;;;;15.84;74.51;96894.19;5117174;28;20048;-72
2023/09/08 00:16:02;;;;;;;6.78;4.47;;;;;;;15.84;74.03;96894.19;5117195;28;20413;-66
2023/09/08 00:18:29;;;;;;;8.60;4.78;;;;;;;15.79;73.93;96894.44;5117401;28;20051;-68
2023/09/08 00:20:56;;;;;;;6.25;4.55;;;;;;;15.81;74.26;96894.38;5116955;28;20102;-71
2023/09/08 00:23:23;;;;;;;7.65;3.97;;;;;;;15.82;73.98;96902.19;5117095;28;20059;-62
2023/09/08 00:25:51;;;;;;;6.55;4.72;;;;;;;15.83;73.67;96895.97;5116869;28;20543;-68
2023/09/08 00:28:18;;;;;;;6.18;4.55;;;;;;;15.86;73.65;96887.91;5116975;28;20077;-69
2023/09/08 00:30:45;;;;;;;8.52;4.40;;;;;;;15.82;73.72;96890.78;5116781;28;20047;-66
2023/09/08 00:33:13;;;;;;;5.75;4.40;;;;;;;15.80;73.90;96888.22;5116753;28;20067;-63
2023/09/08 00:35:41;;;;;;;6.10;4.03;;;;;;;15.78;73.94;96890.13;5116704;28;20046;-63
2023/09/08 00:38:08;;;;;;;9.18;4.43;;;;;;;15.71;73.95;96891.38;5116711;28;20043;-65
2023/09/08 00:40:35;;;;;;;10.65;4.53;;;;;;;15.64;74.07;96891.69;5116661;28;20047;-65
2023/09/08 00:43:02;;;;;;;10.85;4.63;;;;;;;15.67;73.73;96893.31;5116571;28;20074;-67
2023/09/08 00:45:31;;;;;;;6.80;4.38;;;;;;;15.64;73.76;96893.47;5116581;28;20075;-65
2023/09/08 00:47:58;;;;;;;5.93;4.72;;;;;;;15.62;73.79;96888.28;5116459;27;20497;-68
2023/09/08 00:50:27;;;;;;;5.18;4.40;;;;;;;15.59;73.33;96891.06;5116547;28;20126;-65
2023/09/08 00:52:54;;;;;;;5.68;4.28;;;;;;;15.56;73.58;96885.97;5116397;28;20044;-66
2023/09/08 00:55:21;;;;;;;6.28;4.60;;;;;;;15.57;73.27;96887.69;5116362;28;20044;-64
2023/09/08 00:57:48;;;;;;;7.03;4.22;;;;;;;15.57;73.29;96885.06;5116360;28;20043;-65
2023/09/08 01:00:15;;;;;;;5.60;4.38;;;;;;;15.55;73.38;96884.28;5116112;28;20134;-70
2023/09/08 01:02:44;;;;;;;5.50;4.57;;;;;;;15.49;73.35;96889.84;5116180;28;20043;-67
2023/09/08 01:05:12;;;;;;;5.05;3.85;;;;;;;15.51;73.69;96880.09;5115994;27;20055;-63
2023/09/08 01:07:42;;;;;;;7.65;4.55;;;;;;;15.46;73.23;96877.69;5115899;28;20056;-62
2023/09/08 01:10:10;;;;;;;4.20;3.80;;;;;;;15.46;73.47;96882.13;5116120;28;20481;-69
2023/09/08 01:12:37;;;;;;;8.38;4.15;;;;;;;15.45;73.42;96875.16;5116212;28;20435;-65
2023/09/08 01:15:05;;;;;;;6.68;3.85;;;;;;;15.42;73.26;96876.16;5115972;28;20054;-69
2023/09/08 01:17:32;;;;;;;7.68;4.32;;;;;;;15.38;73.36;96878.09;5115897;28;20047;-68
2023/09/08 01:20:11;;;;;;;6.93;4.15;;;;;;;15.40;73.46;96880.66;5115540;28;20098;-71
2023/09/08 01:23:04;;;;;;;5.15;4.00;;;;;;;15.35;72.92;96880.88;5115708;28;20096;-69
2023/09/08 01:25:33;;;;;;;5.18;4.18;;;;;;;15.30;72.91;96877.66;5115633;28;20409;-68
2023/09/08 01:28:04;;;;;;;7.45;4.10;;;;;;;15.24;73.01;96870.06;5115657;28;20054;-65
2023/09/08 01:30:33;;;;;;;6.15;3.80;;;;;;;15.25;73.04;96875.25;5115768;28;20126;-70
2023/09/08 01:33:00;;;;;;;6.90;3.83;;;;;;;15.25;73.08;96869.13;5115626;28;20046;-66
2023/09/08 01:35:27;;;;;;;9.95;4.10;;;;;;;15.21;72.73;96870.22;5115542;28;20090;-69
2023/09/08 01:37:54;;;;;;;4.70;3.55;;;;;;;15.08;72.86;96868.19;5115742;28;20134;-65
2023/09/08 01:40:21;;;;;;;4.57;3.90;;;;;;;15.00;73.46;96859.84;5115509;28;20093;-69
2023/09/08 01:42:50;;;;;;;4.55;3.88;;;;;;;14.93;73.99;96858.47;5115536;28;20464;-64
2023/09/08 01:45:17;;;;;;;7.97;4.00;;;;;;;14.95;73.72;96859.22;5115450;28;20112;-66
2023/09/08 01:47:44;;;;;;;7.20;4.00;;;;;;;14.90;73.86;96856.84;5115366;28;20048;-67
2023/09/08 01:50:11;;;;;;;5.55;4.45;;;;;;;14.85;73.78;96849.19;5115326;28;20043;-71
2023/09/08 01:52:38;;;;;;;6.00;4.20;;;;;;;14.84;74.00;96851.88;5115142;28;20390;-66
2023/09/08 01:55:07;;;;;;;6.45;4.35;;;;;;;14.81;74.54;96850.22;5115208;28;20051;-70
2023/09/08 01:57:34;;;;;;;8.70;4.20;;;;;;;14.76;74.94;96857.50;5115162;28;20047;-66
2023/09/08 02:00:03;;;;;;;5.32;3.50;;;;;;;14.78;74.81;96853.06;5115163;28;20043;-66
2023/09/08 02:02:30;;;;;;;5.85;3.80;;;;;;;14.72;75.06;96861.22;5114552;28;20048;-69
2023/09/08 02:04:57;;;;;;;6.32;4.10;;;;;;;14.72;75.17;96855.97;5114878;28;20062;-65
2023/09/08 02:07:24;;;;;;;7.30;3.67;;;;;;;14.67;74.82;96866.72;5114883;28;20094;-68
2023/09/08 02:09:51;;;;;;;4.80;4.03;;;;;;;14.65;74.78;96858.88;5114904;28;20079;-67
2023/09/08 02:12:18;;;;;;;6.25;3.72;;;;;;;14.67;74.95;96861.44;5114761;28;20127;-68
2023/09/08 02:14:45;;;;;;;4.65;3.03;;;;;;;14.70;74.95;96857.78;5114750;28;20490;-69
2023/09/08 02:17:13;;;;;;;6.35;3.67;;;;;;;14.72;74.77;96867.31;5114714;28;20134;-61
2023/09/08 02:19:41;;;;;;;5.57;3.72;;;;;;;14.71;74.63;96862.13;5114782;28;20082;-68
2023/09/08 02:22:08;;;;;;;4.93;3.55;;;;;;;14.68;74.79;96859.66;5114579;28;20052;-70
2023/09/08 02:24:35;;;;;;;4.50;3.38;;;;;;;14.66;74.89;96859.75;5114427;28;20047;-69
2023/09/08 02:27:02;;;;;;;4.57;3.90;;;;;;;14.65;74.45;96865.91;5114566;28;20047;-71
2023/09/08 02:29:29;;;;;;;5.68;3.88;;;;;;;14.63;74.38;96866.00;5114542;28;20055;-63
2023/09/08 02:31:56;;;;;;;6.50;3.67;;;;;;;14.62;74.46;96866.06;5114393;28;20397;-70
2023/09/08 02:34:24;;;;;;;6.28;4.22;;;;;;;14.61;74.23;96859.97;5114498;28;20043;-68
2023/09/08 02:36:51;;;;;;;6.47;3.55;;;;;;;14.59;74.32;96851.28;5114392;28;20139;-68
2023/09/08 02:39:18;;;;;;;5.55;3.50;;;;;;;14.56;74.51;96851.44;5114341;28;20051;-67
2023/09/08 02:41:46;;;;;;;6.57;3.38;;;;;;;14.50;74.70;96847.31;5114231;28;20415;-68
2023/09/08 02:44:13;;;;;;;5.53;3.65;;;;;;;14.44;75.03;96844.13;5114224;28;20046;-68
2023/09/08 02:46:40;;;;;;;4.35;3.47;;;;;;;14.45;75.55;96848.50;5114611;28;20040;-62
2023/09/08 02:49:07;;;;;;;4.97;3.45;;;;;;;14.39;75.39;96836.50;5114472;28;20089;-67
2023/09/08 02:51:35;;;;;;;4.88;3.50;;;;;;;14.36;75.52;96842.72;5114200;28;20126;-69
2023/09/08 02:54:02;;;;;;;5.15;3.58;;;;;;;14.32;75.59;96840.31;5114077;28;20047;-65
2023/09/08 02:56:29;;;;;;;7.90;4.28;;;;;;;14.31;75.80;96836.00;5114141;28;20046;-66
2023/09/08 02:58:56;;;;;;;9.15;3.53;;;;;;;14.27;75.87;96837.94;5114051;28;20104;-67
2023/09/08 03:01:23;;;;;;;6.22;3.40;;;;;;;14.28;75.64;96840.50;5113997;28;20047;-67
2023/09/08 03:03:50;;;;;;;5.95;3.42;;;;;;;14.25;75.71;96842.41;5113731;28;20558;-67
2023/09/08 03:06:20;;;;;;;5.35;3.15;;;;;;;14.22;75.94;96838.16;5113911;28;20047;-66
2023/09/08 03:08:48;;;;;;;3.60;2.92;;;;;;;14.15;76.14;96834.94;5113758;28;20488;-71
2023/09/08 03:11:15;;;;;;;4.28;3.78;;;;;;;14.19;76.17;96832.16;5113752;28;20046;-68
2023/09/08 03:13:42;;;;;;;6.97;3.95;;;;;;;14.23;75.74;96829.31;5113677;28;20088;-66
2023/09/08 03:16:10;;;;;;;4.22;3.63;;;;;;;14.26;75.62;96834.44;5112908;28;20509;-66
2023/09/08 03:18:38;;;;;;;5.28;3.75;;;;;;;14.30;75.53;96823.78;5113672;28;20070;-67
2023/09/08 03:21:09;;;;;;;7.20;3.67;;;;;;;14.29;75.43;96822.91;5113848;28;20047;-67
2023/09/08 03:23:36;;;;;;;;;;;;;;;14.30;75.42;96821.97;5114327;28;20047;-69
2023/09/08 03:26:04;;;;;;;6.40;3.80;;;;;;;14.27;75.25;96819.53;5113650;28;19920;-67
2023/09/08 03:28:32;;;;;;;10.77;3.83;;;;;;;14.27;75.27;96828.25;5113595;28;20096;-68
2023/09/08 03:30:59;;;;;;;5.78;3.53;;;;;;;14.23;75.21;96828.47;5113509;28;20079;-64
2023/09/08 03:33:26;;;;;;;5.85;3.40;;;;;;;14.21;75.26;96833.78;5113542;28;20475;-66
2023/09/08 03:35:53;;;;;;;4.93;3.38;;;;;;;14.23;75.36;96823.19;5113458;28;20045;-66
2023/09/08 03:38:20;;;;;;;4.03;3.03;;;;;;;14.27;74.97;96830.03;5113494;28;20537;-66
2023/09/08 03:40:47;;;;;;;5.07;3.33;;;;;;;14.26;75.05;96826.53;5113421;28;20100;-69
2023/09/08 03:43:16;;;;;;;10.77;3.92;;;;;;;14.26;74.82;96826.53;5113415;28;20047;-69
2023/09/08 03:45:43;;;;;;;6.63;3.33;;;;;;;14.27;74.77;96832.66;5113274;28;20134;-67
2023/09/08 03:48:10;;;;;;;5.93;3.90;;;;;;;14.27;74.68;96832.66;5113457;28;20048;-69
2023/09/08 03:50:37;;;;;;;4.10;3.60;;;;;;;14.29;74.61;96833.44;5113540;28;20097;-70
2023/09/08 03:53:05;;;;;;;5.22;3.88;;;;;;;14.30;74.59;96836.94;5113300;28;20474;-66
2023/09/08 03:55:32;;;;;;;4.15;3.63;;;;;;;14.31;74.38;96838.63;5113289;28;20044;-64
2023/09/08 03:57:59;;;;;;;4.13;3.38;;;;;;;14.26;74.46;96837.06;5113198;28;20089;-64
2023/09/08 04:00:28;;;;;;;5.30;3.60;;;;;;;14.23;74.68;96833.72;5113362;28;20050;-68
2023/09/08 04:02:56;;;;;;;4.80;3.33;;;;;;;14.26;74.62;96850.22;5113219;28;20075;-66
2023/09/08 04:05:23;;;;;;;3.70;3.28;;;;;;;14.29;74.56;96838.69;5113108;28;20054;-73
2023/09/08 04:07:50;;;;;;;6.15;4.30;;;;;;;14.33;74.57;96839.41;5113003;28;20075;-69
2023/09/08 04:10:17;;;;;;;3.75;3.13;;;;;;;14.32;74.66;96843.81;5113218;28;20048;-66
2023/09/08 04:12:45;;;;;;;12.63;3.70;;;;;;;14.36;74.47;96840.09;5113159;28;20630;-67
2023/09/08 04:15:12;;;;;;;5.10;3.30;;;;;;;14.44;74.28;96844.13;5113228;28;20039;-66
2023/09/08 04:17:41;;;;;;;5.35;3.30;;;;;;;14.45;74.35;96851.94;5113300;28;20047;-65
2023/09/08 04:20:09;;;;;;;4.47;3.58;;;;;;;14.49;74.36;96858.78;5113327;28;20055;-68
2023/09/08 04:22:36;;;;;;;4.60;3.50;;;;;;;14.49;74.28;96860.56;5113105;28;20460;-61
2023/09/08 04:25:05;;;;;;;4.72;3.33;;;;;;;14.51;74.36;96864.00;5112933;28;20074;-65
2023/09/08 04:27:35;;;;;;;5.38;3.30;;;;;;;14.50;74.46;96854.38;5116284;28;20079;-69
2023/09/08 04:30:02;;;;;;;4.43;3.30;;;;;;;14.44;74.65;96858.16;5117014;28;20055;-64
2023/09/08 04:32:30;;;;;;;3.50;2.85;;;;;;;14.45;75.08;96865.09;5116847;27;20056;-66
2023/09/08 04:34:58;;;;;;;5.85;3.25;;;;;;;14.66;75.04;96859.75;5117085;28;20063;-68
2023/09/08 04:37:25;;;;;;;4.97;3.35;;;;;;;15.07;74.37;96863.88;5116688;28;20039;-69
2023/09/08 04:39:52;;;;;;;4.45;2.90;;;;;;;15.71;72.42;96859.75;5116530;28;20083;-68
2023/09/08 04:42:19;;;;;;;4.07;3.00;;;;;;;16.40;69.84;96870.06;5116907;28;20047;-69
2023/09/08 04:44:46;;;;;;;4.68;3.05;;;;;;;17.10;67.10;96875.84;5116396;28;20135;-69
2023/09/08 04:47:14;;;;;;;5.80;3.05;;;;;;;17.85;64.80;96888.06;5116178;28;20051;-66
2023/09/08 04:49:41;;;;;;;4.65;2.78;;;;;;;18.57;62.03;96883.59;5116304;28;20060;-63
2023/09/08 04:52:11;;;;;;;3.08;2.65;;;;;;;19.32;59.76;96884.88;5116180;27;20561;-66
2023/09/08 04:54:38;;;;;;;3.40;2.22;;;;;;;20.09;56.46;96890.28;5116520;28;20077;-71
2023/09/08 04:57:05;;;;;;;5.00;2.60;;;;;;;20.71;54.80;96888.47;5116357;28;20053;-69
2023/09/08 04:59:33;;;;;;;3.10;2.17;;;;;;;21.38;52.60;96901.31;5116570;28;20051;-68
2023/09/08 05:02:00;;;;;;;9.15;2.65;;;;;;;22.05;51.22;96890.00;5116231;28;20055;-66
2023/09/08 05:04:27;;;;;;;7.38;2.30;;;;;;;22.59;48.19;96893.72;5116277;28;20086;-65
2023/09/08 05:06:54;;;;;;;8.02;2.67;;;;;;;23.08;44.82;96895.06;5116048;28;20138;-66
2023/09/08 05:09:22;;;;;;;4.10;2.28;;;;;;;23.54;47.05;96890.34;5115873;28;20092;-64
2023/09/08 05:11:49;;;;;;;4.47;2.30;;;;;;;23.98;42.63;96890.16;5116002;28;20565;-66
2023/09/08 05:14:17;;;;;;;5.13;2.55;;;;;;;24.28;42.49;96894.78;5115992;28;20489;-66
2023/09/08 05:16:46;;;;;;;4.60;2.78;;;;;;;24.59;41.67;96894.72;5115993;28;20055;-65
2023/09/08 05:19:14;;;;;;;6.07;2.88;;;;;;;24.91;41.26;96898.16;5115983;28;20052;-69
2023/09/08 05:21:41;;;;;;;3.00;2.35;;;;;;;25.29;39.41;96906.31;5115858;28;20048;-67
2023/09/08 05:24:09;;;;;;;3.80;2.40;;;;;;;25.36;39.24;96902.06;5116016;28;20048;-69
2023/09/08 05:26:38;;;;;;;7.47;2.72;;;;;;;25.25;38.17;96903.06;5115668;28;20044;-66
2023/09/08 05:29:05;;;;;;;5.78;2.70;;;;;;;25.24;39.05;96904.91;5115777;28;20075;-62
2023/09/08 05:31:32;;;;;;;9.20;2.70;;;;;;;25.59;39.10;96901.75;5115687;28;20047;-67
2023/09/08 05:34:00;;;;;;;3.97;2.40;;;;;;;26.03;38.64;96905.75;5115653;27;20043;-65
2023/09/08 05:36:27;;;;;;;4.15;2.30;;;;;;;26.19;39.46;96900.56;5115683;28;20047;-64
2023/09/08 05:38:54;;;;;;;3.83;2.15;;;;;;;26.70;37.73;96912.75;5114599;28;20040;-68
2023/09/08 05:41:21;;;;;;;2.83;2.42;;;;;;;26.84;36.44;96911.34;5115564;28;20097;-67
2023/09/08 05:43:50;;;;;;;4.90;2.45;;;;;;;26.97;36.30;96911.00;5115609;28;20051;-66
2023/09/08 05:46:17;;;;;;;5.05;2.75;;;;;;;27.05;36.96;96912.91;5115313;28;20054;-68
2023/09/08 05:52:05;;;;;;;5.93;2.17;;;;;;;27.93;34.03;96918.47;5115513;28;20051;-68
2023/09/08 05:54:33;;;;;;;6.47;2.53;;;;;;;28.21;34.53;96918.28;5115380;28;20044;-67
2023/09/08 05:57:00;;;;;;;9.30;2.40;;;;;;;28.34;33.04;96907.09;5115271;28;20079;-69
2023/09/08 05:59:29;;;;;;;6.13;2.67;;;;;;;28.18;34.33;96914.06;5115161;28;20134;-66
2023/09/08 06:01:56;;;;;;;6.80;2.83;;;;;;;28.16;33.83;96907.16;5115207;28;20113;-64
2023/09/08 06:04:23;;;;;;;3.42;2.30;;;;;;;28.12;32.97;96912.03;5115201;28;20102;-66
2023/09/08 06:06:50;;;;;;;4.07;2.10;;;;;;;28.09;34.63;96904.28;5115066;28;20044;-67
2023/09/08 06:09:17;;;;;;;5.15;2.38;;;;;;;27.92;32.76;96914.94;5115029;28;20044;-63
2023/09/08 06:11:44;;;;;;;4.35;2.60;;;;;;;27.82;33.55;96896.25;5114949;28;20043;-67
2023/09/08 06:14:11;;;;;;;2.60;2.40;;;;;;;28.05;33.02;96894.84;5114950;28;20477;-69
2023/09/08 06:16:39;;;;;;;6.40;2.67;;;;;;;28.02;34.52;96896.00;5114888;28;20402;-65
2023/09/08 06:19:07;;;;;;;5.15;2.53;;;;;;;27.88;33.93;96902.81;5114913;28;20540;-68
2023/09/08 06:21:34;;;;;;;5.72;2.58;;;;;;;28.02;34.28;96898.69;5114728;28;20093;-66
2023/09/08 06:24:00;;;;;;;5.43;2.60;;;;;;;28.24;33.09;96896.44;5114726;28;20055;-63
2023/09/08 06:26:27;;;;;;;5.10;2.63;;;;;;;28.41;34.00;96912.66;5114734;28;20053;-64
2023/09/08 06:28:54;;;;;;;4.07;2.72;;;;;;;28.44;32.40;96910.47;5114750;28;20488;-63
2023/09/08 06:31:21;;;;;;;10.88;2.65;;;;;;;28.29;32.74;96910.25;5114901;28;20043;-64
2023/09/08 06:33:51;;;;;;;6.45;2.80;;;;;;;28.06;32.27;96908.13;5114627;28;20051;-65
2023/09/08 06:36:19;;;;;;;4.72;2.78;;;;;;;27.48;33.72;96902.38;5114373;28;20047;-64
2023/09/08 06:38:46;;;;;;;6.97;3.00;;;;;;;27.14;34.09;96908.50;5114434;28;20054;-65
2023/09/08 06:41:13;;;;;;;4.63;3.00;;;;;;;26.97;33.98;96911.00;5114314;28;20451;-67
2023/09/08 06:43:40;;;;;;;8.82;2.72;;;;;;;26.99;34.54;96909.88;5114391;28;20480;-66
2023/09/08 06:46:07;;;;;;;6.00;2.80;;;;;;;27.11;34.07;96909.63;5114064;28;20091;-66
2023/09/08 06:48:35;;;;;;;5.82;3.15;;;;;;;27.23;34.69;96911.09;5114133;28;20123;-65
2023/09/08 06:51:03;;;;;;;4.38;3.17;;;;;;;27.49;34.48;96912.13;5114111;28;20044;-65
2023/09/08 06:53:30;;;;;;;5.07;2.97;;;;;;;27.59;33.14;96923.59;5114374;28;20073;-64
2023/09/08 06:55:57;;;;;;;4.22;2.95;;;;;;;27.62;35.08;96923.28;5114218;28;20138;-63
2023/09/08 06:58:24;;;;;;;4.22;2.60;;;;;;;27.60;33.36;96919.09;5113910;28;20554;-68
2023/09/08 07:00:54;;;;;;;8.48;3.00;;;;;;;27.52;32.50;96914.50;5113940;28;20048;-62
2023/09/08 07:03:24;;;;;;;7.65;3.03;;;;;;;27.34;33.16;96912.69;5113983;28;20048;-67
2023/09/08 07:05:51;;;;;;;5.97;3.00;;;;;;;27.37;33.74;96909.69;5113820;28;20405;-65
2023/09/08 07:08:19;;;;;;;10.02;3.03;;;;;;;27.37;33.96;96911.53;5113748;28;20052;-65
2023/09/08 07:10:46;;;;;;;4.25;2.75;;;;;;;27.58;33.75;96913.88;5113834;28;20471;-67
2023/09/08 07:13:13;;;;;;;4.22;3.28;;;;;;;27.45;33.66;96918.81;5113769;28;20040;-68
2023/09/08 07:15:41;;;;;;;8.15;2.83;;;;;;;27.36;32.68;96913.34;5113796;28;20106;-66
2023/09/08 07:18:08;;;;;;;5.70;2.88;;;;;;;27.21;33.82;96920.31;5113733;28;20047;-65
2023/09/08 07:20:35;;;;;;;8.20;3.33;;;;;;;26.78;34.25;96912.00;5113735;28;20043;-67
2023/09/08 07:23:02;;;;;;;8.05;3.10;;;;;;;26.61;35.32;96907.28;5113593;28;20055;-65
2023/09/08 07:25:30;;;;;;;5.40;3.15;;;;;;;26.73;35.06;96910.59;5113568;28;20043;-66
2023/09/08 07:27:56;;;;;;;5.95;3.22;;;;;;;26.42;34.19;96915.44;5113612;28;20135;-66
2023/09/08 07:30:23;;;;;;;9.18;3.75;;;;;;;26.23;35.24;96920.75;5113469;28;20119;-66
2023/09/08 07:32:50;;;;;;;5.18;3.70;;;;;;;25.95;34.70;96918.00;5113654;28;20405;-66
2023/09/08 07:35:19;;;;;;;4.60;3.13;;;;;;;25.88;34.79;96906.19;5113625;28;20390;-64
2023/09/08 07:37:46;;;;;;;9.13;3.55;;;;;;;25.70;35.38;96916.81;5113524;28;20043;-61
2023/09/08 07:40:13;;;;;;;11.88;3.70;;;;;;;25.54;35.96;96910.22;5113474;28;20040;-68
2023/09/08 07:42:41;;;;;;;4.50;3.50;;;;;;;25.34;35.93;96910.25;5113348;28;20052;-68
2023/09/08 07:45:10;;;;;;;5.32;3.17;;;;;;;25.13;37.72;96905.03;5113453;28;20054;-63
2023/09/08 07:47:38;;;;;;;10.40;3.60;;;;;;;25.04;36.13;96904.06;5113267;28;20058;-66
2023/09/08 07:50:19;;;;;;;5.47;3.13;;;;;;;25.09;36.59;96898.28;5113553;28;20095;-63
2023/09/08 07:52:47;;;;;;;6.28;3.03;;;;;;;24.92;36.59;96903.34;5113380;28;20417;-66
2023/09/08 07:55:14;;;;;;;20.25;3.40;;;;;;;24.64;36.94;96904.97;5113685;28;20044;-65
2023/09/08 07:57:42;;;;;;;5.95;3.50;;;;;;;25.05;37.28;96905.78;5113219;28;20139;-65
2023/09/08 08:00:11;;;;;;;4.85;3.47;;;;;;;25.67;37.27;96909.94;5113333;28;20388;-66
2023/09/08 08:02:39;;;;;;;8.63;3.60;;;;;;;25.81;35.13;96900.59;5116937;28;20063;-66
2023/09/08 08:05:07;;;;;;;8.63;3.33;;;;;;;25.74;34.85;96911.03;5117514;28;20130;-68
2023/09/08 08:07:34;;;;;;;3.97;3.00;;;;;;;25.51;34.47;96904.28;5117093;28;20047;-63
2023/09/08 08:10:02;;;;;;;5.85;3.67;;;;;;;25.04;35.84;96900.56;5117333;28;20044;-64
2023/09/08 08:12:29;;;;;;;8.98;3.20;;;;;;;25.27;36.23;96901.09;5117393;28;20055;-62
2023/09/08 08:14:58;;;;;;;5.93;3.20;;;;;;;25.19;35.79;96907.16;5117209;28;20044;-65
2023/09/08 08:17:27;;;;;;;9.27;3.30;;;;;;;25.02;35.63;96900.69;5117167;28;20075;-64
2023/09/08 08:19:55;;;;;;;8.18;3.15;;;;;;;25.26;35.82;96901.25;5117052;28;20066;-66
2023/09/08 08:22:22;;;;;;;7.53;2.95;;;;;;;25.23;35.53;96892.50;5117008;28;20055;-65
2023/09/08 08:24:49;;;;;;;4.63;3.28;;;;;;;25.32;35.70;96893.50;5116885;28;20048;-64
2023/09/08 08:27:17;;;;;;;4.93;2.75;;;;;;;25.82;36.14;96896.06;5116976;28;20048;-68
2023/09/08 08:29:44;;;;;;;6.53;3.00;;;;;;;26.41;35.65;96889.63;5116978;28;20050;-67
2023/09/08 08:32:13;;;;;;;4.55;2.65;;;;;;;26.57;33.75;96900.53;5116869;28;20052;-65
2023/09/08 08:34:40;;;;;;;8.82;3.47;;;;;;;26.24;34.42;96898.28;5117057;28;20051;-66
2023/09/08 08:37:07;;;;;;;6.57;3.20;;;;;;;25.95;35.51;96891.22;5116878;28;20039;-67
2023/09/08 08:39:35;;;;;;;7.65;3.70;;;;;;;25.79;35.44;96881.13;5116644;28;20050;-64
2023/09/08 08:42:08;;;;;;;10.00;3.25;;;;;;;25.52;37.06;96885.41;5116896;28;20404;-67
2023/09/08 08:44:36;;;;;;;4.15;3.38;;;;;;;25.44;36.90;96886.16;5116638;28;20047;-65
2023/09/08 08:47:05;;;;;;;4.50;3.03;;;;;;;25.42;36.80;96893.47;5116510;28;20108;-65
2023/09/08 08:49:34;;;;;;;5.03;2.85;;;;;;;25.42;36.73;96889.94;5116550;28;20055;-67
2023/09/08 08:52:06;;;;;;;8.38;3.15;;;;;;;25.19;34.61;96887.59;5116499;27;20108;-66
2023/09/08 08:54:35;;;;;;;4.88;3.10;;;;;;;25.02;35.49;96889.16;5116439;28;20143;-68
2023/09/08 08:57:03;;;;;;;6.32;3.22;;;;;;;25.45;34.84;96886.97;5116364;28;20126;-64
2023/09/08 08:59:31;;;;;;;7.50;3.15;;;;;;;25.71;35.07;96875.69;5116254;28;20144;-64
2023/09/08 09:01:59;;;;;;;6.53;3.47;;;;;;;26.04;34.84;96876.13;5116242;28;20048;-65
2023/09/08 09:04:27;;;;;;;3.92;2.97;;;;;;;26.29;33.89;96875.56;5116256;28;20048;-67
2023/09/08 09:06:56;;;;;;;8.82;3.03;;;;;;;26.01;33.30;96883.59;5116174;28;20051;-66
2023/09/08 09:09:25;;;;;;;5.00;2.95;;;;;;;25.96;33.74;96890.25;5116022;28;20157;-64
2023/09/08 09:11:52;;;;;;;9.32;3.92;;;;;;;25.58;33.73;96883.97;5115696;28;20048;-64
2023/09/08 09:14:20;;;;;;;5.68;3.50;;;;;;;25.43;34.54;96880.94;5115368;28;20047;-66
2023/09/08 09:16:47;;;;;;;4.93;3.42;;;;;;;25.52;34.53;96887.25;5116006;28;20401;-64
2023/09/08 09:19:25;;;;;;;4.60;3.30;;;;;;;25.92;33.98;96880.81;5116025;28;20043;-68
2023/09/08 09:21:54;;;;;;;6.18;3.28;;;;;;;26.51;33.78;96887.72;5115878;28;20378;-64
2023/09/08 09:24:32;;;;;;;3.58;2.90;;;;;;;26.61;32.23;96882.31;5115981;28;20135;-63
2023/09/08 09:27:00;;;;;;;6.18;3.28;;;;;;;26.18;33.22;96888.16;5115830;27;20534;-63
2023/09/08 09:29:28;;;;;;;6.80;3.15;;;;;;;26.04;32.96;96889.53;5115702;28;20052;-63
2023/09/08 09:31:57;;;;;;;4.53;3.35;;;;;;;25.91;33.25;96883.66;5115569;28;20047;-63
2023/09/08 09:34:25;;;;;;;4.05;2.83;;;;;;;25.91;34.11;96884.47;5115726;28;20048;-67
2023/09/08 09:36:52;;;;;;;5.47;3.35;;;;;;;25.89;34.22;96886.47;5115582;28;20046;-64
2023/09/08 09:39:21;;;;;;;8.98;3.28;;;;;;;25.79;34.13;96878.47;5115655;28;20104;-64
2023/09/08 09:41:50;;;;;;;3.70;3.30;;;;;;;25.65;34.74;96873.56;5115539;27;20047;-64
2023/09/08 09:44:18;;;;;;;5.68;2.95;;;;;;;25.53;34.80;96879.09;5115595;28;20048;-65
2023/09/08 09:46:46;;;;;;;4.60;3.28;;;;;;;25.49;35.07;96869.63;5115583;28;20069;-67
2023/09/08 09:49:14;;;;;;;5.28;3.25;;;;;;;25.48;35.14;96876.84;5115573;28;20051;-66
2023/09/08 09:51:43;;;;;;;7.75;3.35;;;;;;;25.41;35.27;96877.56;5115296;28;20054;-67
2023/09/08 09:54:11;;;;;;;6.18;3.17;;;;;;;25.51;34.77;96872.16;5115254;28;20058;-63
2023/09/08 09:56:39;;;;;;;3.88;3.03;;;;;;;25.72;35.97;96862.13;5115468;28;20043;-64
2023/09/08 09:59:10;;;;;;;8.82;3.25;;;;;;;26.21;36.22;96855.69;5115183;28;20040;-65
2023/09/08 10:01:38;;;;;;;6.75;3.70;;;;;;;26.37;33.46;96862.28;5115218;28;20040;-70
2023/09/08 10:04:07;;;;;;;7.68;3.30;;;;;;;26.28;34.30;96861.31;5114969;28;20134;-68
2023/09/08 10:06:36;;;;;;;5.30;3.65;;;;;;;26.39;34.63;96857.59;5114853;28;20135;-67
2023/09/08 10:09:08;;;;;;;6.05;3.33;;;;;;;26.31;33.90;96860.19;5114930;28;20044;-65
2023/09/08 10:11:39;;;;;;;4.10;3.05;;;;;;;26.25;34.36;96856.25;5114969;28;20100;-65
2023/09/08 10:14:11;;;;;;;4.88;3.65;;;;;;;26.08;34.69;96863.25;5114873;28;20485;-66
2023/09/08 10:16:40;;;;;;;6.32;3.20;;;;;;;25.81;34.19;96859.56;5114831;28;20138;-68
2023/09/08 10:19:10;;;;;;;3.78;3.15;;;;;;;25.69;34.32;96865.09;5115182;28;20127;-67
2023/09/08 10:21:41;;;;;;;5.80;3.83;;;;;;;25.64;34.97;96861.19;5114790;28;20451;-63
2023/09/08 10:24:16;;;;;;;5.72;3.45;;;;;;;25.55;34.53;96866.38;5114515;28;20501;-67
2023/09/08 10:26:46;;;;;;;6.53;3.38;;;;;;;25.54;34.70;96850.47;5114531;28;20051;-65
2023/09/08 10:29:15;;;;;;;4.97;3.55;;;;;;;25.66;34.05;96853.84;5114605;28;20040;-67
2023/09/08 10:31:44;;;;;;;8.18;3.22;;;;;;;25.72;34.28;96851.44;5114606;28;20413;-66
2023/09/08 10:34:12;;;;;;;9.57;3.22;;;;;;;25.90;35.23;96860.50;5114574;28;20071;-66
2023/09/08 10:36:40;;;;;;;5.85;3.10;;;;;;;26.33;33.68;96858.19;5114752;28;20493;-65
2023/09/08 10:39:31;;;;;;;9.18;3.30;;;;;;;26.40;33.24;96847.72;5114459;28;20043;-67
2023/09/08 10:42:25;;;;;;;6.03;3.40;;;;;;;26.23;34.57;96848.38;5111168;28;20044;-62
2023/09/08 10:45:04;;;;;;;5.28;3.28;;;;;;;26.20;34.63;96840.63;5114372;28;20047;-65
2023/09/08 10:47:42;;;;;;;7.75;3.08;;;;;;;26.36;34.17;96844.50;5114411;28;20051;-64
2023/09/08 10:50:17;;;;;;;6.70;3.10;;;;;;;26.38;33.68;96842.53;5114183;28;20546;-63
2023/09/08 10:52:44;;;;;;;7.97;3.38;;;;;;;26.14;34.52;96835.84;5114389;28;20049;-62
2023/09/08 10:55:12;;;;;;;7.90;3.67;;;;;;;26.04;34.37;96837.75;5114178;28;20049;-68
2023/09/08 10:57:46;;;;;;;5.10;3.55;;;;;;;26.11;35.08;96839.69;5114055;28;20048;-62
2023/09/08 11:00:20;;;;;;;5.30;2.95;;;;;;;26.22;33.90;96824.38;5114081;28;20126;-61
2023/09/08 11:02:50;;;;;;;7.63;3.35;;;;;;;26.39;33.95;96832.66;5114019;28;20066;-63
2023/09/08 11:05:19;;;;;;;9.73;4.00;;;;;;;26.48;32.84;96821.84;5113935;28;20043;-67
2023/09/08 11:07:49;;;;;;;6.65;3.58;;;;;;;26.65;33.05;96815.78;5113614;28;20051;-67
2023/09/08 11:10:16;;;;;;;4.80;3.67;;;;;;;26.61;33.68;96816.09;5113797;28;20447;-66
2023/09/08 11:12:43;;;;;;;8.32;3.25;;;;;;;26.51;34.18;96807.28;5114188;28;20043;-66
2023/09/08 11:15:11;;;;;;;6.15;4.03;;;;;;;26.47;34.11;96812.13;5113794;28;20043;-63
2023/09/08 11:17:42;;;;;;;4.85;3.00;;;;;;;26.53;34.36;96801.75;5113805;28;20047;-65
2023/09/08 11:20:10;;;;;;;4.80;3.70;;;;;;;26.87;34.81;96796.53;5113710;28;20069;-65
2023/09/08 11:22:39;;;;;;;9.82;3.78;;;;;;;27.37;32.45;96791.56;5113630;28;20056;-61
2023/09/08 11:25:08;;;;;;;4.55;3.38;;;;;;;27.71;32.41;96784.53;5113709;28;20065;-62
2023/09/08 11:27:36;;;;;;;15.00;3.30;;;;;;;28.02;30.16;96793.84;5113542;28;20055;-64
2023/09/08 11:30:04;;;;;;;5.38;3.13;;;;;;;27.60;30.48;96782.09;5113869;28;20236;-64
2023/09/08 11:32:34;;;;;;;5.78;3.80;;;;;;;27.27;31.93;96787.28;5113638;28;20145;-67
2023/09/08 11:35:06;;;;;;;4.05;3.00;;;;;;;27.10;32.12;96785.34;5113173;28;20087;-66
2023/09/08 11:37:37;;;;;;;4.32;2.92;;;;;;;27.06;33.15;96789.31;5113239;28;20124;-63
2023/09/08 11:40:12;;;;;;;12.18;3.55;;;;;;;27.02;33.21;96777.22;5113504;28;20131;-62
2023/09/08 11:42:43;;;;;;;5.05;3.58;;;;;;;27.08;33.40;96778.44;5113643;28;20142;-70